Time;durP1;ratioP1;P1;durP2;ratioP2;P2;SDS_P1;SDS_P2;PMS_P1;PMS_P2;Temp;Humidity;BMP_temperature;BMP_pressure;BME280_temperature;BME280_humidity;BME280_pressure;Samples;Min_cycle;Max_cycle;Signal;HPM_P1;HPM_P2
2021/09/07 00:00:31;;;;;;;9.35;6.30;;;;;;;14.21;85.18;98727.88;5031364;28;20072;-83
2021/09/07 00:02:57;;;;;;;9.00;6.53;;;;;;;14.07;86.09;98715.97;5031429;28;20053;-82
2021/09/07 00:05:22;;;;;;;12.45;7.20;;;;;;;14.24;85.03;98724.53;5031473;28;20698;-82
2021/09/07 00:07:48;;;;;;;7.30;6.45;;;;;;;14.04;85.78;98706.41;5033776;28;20041;-87
2021/09/07 00:10:15;;;;;;;13.60;7.38;;;;;;;14.12;85.85;98710.41;5049035;28;20500;-84
2021/09/07 00:12:42;;;;;;;12.02;7.72;;;;;;;13.98;86.56;98718.59;5066297;28;20013;-86
2021/09/07 00:15:10;;;;;;;11.38;7.10;;;;;;;13.90;86.67;98706.34;5054300;28;20055;-84
2021/09/07 00:17:36;;;;;;;11.18;6.85;;;;;;;14.08;86.37;98706.63;5051709;28;20056;-84
2021/09/07 00:20:03;;;;;;;10.55;7.15;;;;;;;14.03;86.60;98713.03;5052666;28;20024;-85
2021/09/07 00:22:28;;;;;;;12.93;7.22;;;;;;;14.07;86.43;98713.22;5052594;28;20021;-85
2021/09/07 00:24:53;;;;;;;10.25;6.78;;;;;;;13.83;87.34;98699.59;5051023;28;20028;-83
2021/09/07 00:27:19;;;;;;;13.38;6.78;;;;;;;13.60;88.94;98695.78;5049276;28;20037;-87
2021/09/07 00:29:44;;;;;;;8.48;6.68;;;;;;;13.91;87.61;98707.16;5032362;28;20029;-84
2021/09/07 00:32:11;;;;;;;9.95;6.00;;;;;;;13.89;87.57;98709.41;5032906;28;20061;-83
2021/09/07 00:34:36;;;;;;;11.38;7.13;;;;;;;13.92;87.43;98706.03;5033011;28;20033;-81
2021/09/07 00:37:02;;;;;;;10.27;7.35;;;;;;;13.83;87.34;98700.41;5032378;28;20029;-85
2021/09/07 00:39:28;;;;;;;9.63;6.28;;;;;;;13.81;87.68;98704.56;5032170;28;20053;-82
2021/09/07 00:41:53;;;;;;;7.28;5.38;;;;;;;13.88;87.30;98711.31;5032185;28;20073;-82
2021/09/07 00:44:25;;;;;;;8.98;6.45;;;;;;;13.75;87.75;98711.28;5030821;28;20029;-82
2021/09/07 00:46:53;;;;;;;9.75;6.10;;;;;;;13.86;87.33;98710.00;5031982;28;20045;-83
2021/09/07 00:49:19;;;;;;;12.05;6.97;;;;;;;13.74;87.81;98702.19;5030901;28;20490;-82
2021/09/07 00:51:46;;;;;;;11.05;6.40;;;;;;;13.77;87.44;98698.84;5031742;28;20029;-82
2021/09/07 00:54:12;;;;;;;11.02;6.32;;;;;;;13.82;87.39;98692.44;5032810;28;20129;-82
2021/09/07 00:56:39;;;;;;;10.40;6.07;;;;;;;13.74;87.80;98707.69;5031915;28;20029;-84
2021/09/07 00:59:06;;;;;;;8.27;6.13;;;;;;;13.50;88.84;98690.44;5032059;28;20026;-82
2021/09/07 01:01:32;;;;;;;12.18;6.53;;;;;;;13.74;88.20;98702.19;5032162;28;20022;-84
2021/09/07 01:03:57;;;;;;;8.60;6.40;;;;;;;13.52;89.18;98709.38;5035102;28;20128;-82
2021/09/07 01:06:23;;;;;;;13.02;7.30;;;;;;;13.45;89.78;98704.25;5036758;28;20033;-85
2021/09/07 01:08:49;;;;;;;11.15;6.53;;;;;;;13.54;89.58;98707.97;5035029;28;20033;-82
2021/09/07 01:11:18;;;;;;;9.20;6.43;;;;;;;13.43;89.59;98687.25;5036316;28;20047;-84
2021/09/07 01:13:43;;;;;;;9.38;6.97;;;;;;;13.50;89.57;98698.66;5036514;28;20028;-83
2021/09/07 01:16:09;;;;;;;9.80;7.32;;;;;;;13.61;89.10;98691.94;5036066;28;20025;-81
2021/09/07 01:18:34;;;;;;;8.85;6.50;;;;;;;13.59;88.59;98699.69;5034963;28;20029;-81
2021/09/07 01:20:59;;;;;;;8.45;6.35;;;;;;;13.37;89.89;98693.94;5033914;28;20021;-84
2021/09/07 01:23:26;;;;;;;9.82;6.97;;;;;;;13.51;89.85;98697.56;5035778;28;20045;-82
2021/09/07 01:25:51;;;;;;;10.70;7.45;;;;;;;13.37;90.37;98702.97;5035396;28;20026;-83
2021/09/07 01:28:18;;;;;;;10.57;6.43;;;;;;;13.25;90.73;98693.53;5039784;28;20036;-85
2021/09/07 01:30:44;;;;;;;13.18;6.97;;;;;;;13.07;91.97;98688.78;5044531;28;20029;-85
2021/09/07 01:33:11;;;;;;;9.60;6.72;;;;;;;13.26;91.48;98708.91;5039750;28;20026;-85
2021/09/07 01:35:39;;;;;;;10.55;7.15;;;;;;;13.24;91.24;98698.22;5038110;28;20056;-86
2021/09/07 01:38:06;;;;;;;12.23;7.07;;;;;;;13.29;90.57;98700.06;5037442;28;20040;-84
2021/09/07 01:40:31;;;;;;;11.30;7.13;;;;;;;13.08;91.67;98705.00;5037278;28;20108;-87
2021/09/07 01:42:57;;;;;;;12.52;7.22;;;;;;;12.94;93.23;98708.72;5037393;28;20502;-87
2021/09/07 01:45:22;;;;;;;9.50;7.28;;;;;;;12.81;94.16;98707.50;5036200;28;20070;-85
2021/09/07 01:47:50;;;;;;;10.55;7.28;;;;;;;12.85;94.09;98706.59;5035775;28;20052;-85
2021/09/07 01:50:16;;;;;;;14.85;7.45;;;;;;;12.85;93.99;98706.59;5042766;28;20120;-85
2021/09/07 01:52:42;;;;;;;11.70;7.22;;;;;;;12.87;94.00;98706.31;5040133;28;20022;-86
2021/09/07 01:55:08;;;;;;;8.85;6.90;;;;;;;12.82;94.14;98698.94;5036705;28;20076;-85
2021/09/07 01:57:34;;;;;;;11.77;7.18;;;;;;;12.69;94.86;98696.88;5036527;28;20021;-85
2021/09/07 01:59:59;;;;;;;11.07;6.82;;;;;;;12.66;95.54;98702.97;5036468;28;20612;-84
2021/09/07 02:02:24;;;;;;;8.80;6.10;;;;;;;12.68;95.09;98706.25;5035902;28;20032;-85
2021/09/07 02:04:50;;;;;;;10.75;7.13;;;;;;;12.66;95.24;98710.38;5036541;28;20044;-86
2021/09/07 02:07:15;;;;;;;9.27;6.75;;;;;;;12.70;94.86;98698.53;5038734;28;20052;-83
2021/09/07 02:09:41;;;;;;;12.20;6.82;;;;;;;12.65;94.68;98695.03;5040710;28;20037;-84
2021/09/07 02:12:07;;;;;;;8.70;6.85;;;;;;;12.60;95.25;98704.13;5039353;28;20388;-84
2021/09/07 02:14:33;;;;;;;13.48;7.28;;;;;;;12.46;96.39;98705.94;5036532;28;20516;-85
2021/09/07 02:16:58;;;;;;;10.90;7.07;;;;;;;12.44;96.65;98705.38;5034390;28;20390;-83
2021/09/07 02:19:24;;;;;;;11.18;6.95;;;;;;;12.40;96.32;98696.09;5035603;28;20022;-87
2021/09/07 02:21:49;;;;;;;12.02;6.93;;;;;;;12.36;96.24;98692.28;5051178;28;20117;-86
2021/09/07 02:24:16;;;;;;;12.95;7.60;;;;;;;12.27;96.84;98694.84;5035496;28;20029;-87
2021/09/07 02:26:42;;;;;;;12.98;7.40;;;;;;;12.44;95.83;98704.56;5045968;28;20080;-87
2021/09/07 02:29:09;;;;;;;10.70;6.65;;;;;;;12.38;95.99;98705.72;5045260;28;21452;-85
2021/09/07 02:31:34;;;;;;;9.45;6.88;;;;;;;12.28;96.17;98688.25;5038000;28;20036;-84
2021/09/07 02:34:00;;;;;;;11.35;7.82;;;;;;;12.29;96.22;98700.84;5051960;28;20021;-85
2021/09/07 02:36:26;;;;;;;13.02;7.80;;;;;;;12.16;96.63;98689.72;5037581;28;20079;-85
2021/09/07 02:38:53;;;;;;;10.82;7.45;;;;;;;12.15;96.93;98697.13;5037218;28;20075;-86
2021/09/07 02:41:20;;;;;;;10.05;7.72;;;;;;;12.40;95.99;98704.34;5035347;28;20061;-87
2021/09/07 02:43:45;;;;;;;11.68;8.35;;;;;;;12.29;95.80;98692.63;5035811;28;20064;-85
2021/09/07 02:46:11;;;;;;;8.57;6.88;;;;;;;12.29;96.07;98705.53;5036810;28;20034;-87
2021/09/07 02:48:36;;;;;;;10.40;7.90;;;;;;;12.19;96.62;98697.38;5035848;28;20083;-87
2021/09/07 02:51:03;;;;;;;11.88;7.25;;;;;;;12.31;96.72;98697.81;5035946;28;20037;-84
2021/09/07 02:53:28;;;;;;;10.45;6.70;;;;;;;12.38;95.87;98706.53;5036528;28;20022;-86
2021/09/07 02:55:53;;;;;;;9.00;6.72;;;;;;;12.40;94.84;98698.84;5036070;28;20080;-86
2021/09/07 02:58:19;;;;;;;11.30;7.25;;;;;;;12.42;94.71;98695.81;5035384;28;20033;-84
2021/09/07 03:00:44;;;;;;;10.85;6.63;;;;;;;12.58;94.10;98689.88;5034483;28;20022;-85
2021/09/07 03:03:10;;;;;;;13.40;7.32;;;;;;;12.47;94.17;98687.53;5034632;28;20025;-84
2021/09/07 03:05:36;;;;;;;10.13;7.32;;;;;;;12.29;95.39;98686.31;5035791;28;20025;-87
2021/09/07 03:08:02;;;;;;;11.45;7.70;;;;;;;12.49;94.65;98690.81;5035573;28;20401;-85
2021/09/07 03:10:27;;;;;;;14.90;7.05;;;;;;;12.39;94.53;98682.66;5035423;28;20033;-86
2021/09/07 03:12:55;;;;;;;10.73;7.47;;;;;;;12.42;94.71;98691.13;5035564;28;20013;-88
2021/09/07 03:15:22;;;;;;;12.63;8.02;;;;;;;12.39;94.76;98680.75;5035411;28;20026;-85
2021/09/07 03:17:47;;;;;;;9.60;6.75;;;;;;;12.35;94.74;98685.16;5035508;28;20488;-87
2021/09/07 03:20:13;;;;;;;8.50;6.82;;;;;;;12.47;94.39;98676.56;5033982;28;20104;-85
2021/09/07 03:22:38;;;;;;;9.80;6.78;;;;;;;12.19;95.88;98676.25;5035012;28;20116;-84
2021/09/07 03:25:04;;;;;;;11.65;8.07;;;;;;;12.06;96.81;98670.63;5037080;28;20041;-85
2021/09/07 03:27:30;;;;;;;9.55;6.38;;;;;;;12.07;97.17;98686.78;5035033;28;20083;-84
2021/09/07 03:29:55;;;;;;;8.73;6.72;;;;;;;12.04;97.42;98681.88;5032869;28;20089;-84
2021/09/07 03:32:20;;;;;;;11.75;7.78;;;;;;;11.94;97.89;98670.97;5034694;28;20029;-83
2021/09/07 03:34:46;;;;;;;11.25;6.95;;;;;;;11.96;98.30;98678.94;5033440;28;20038;-84
2021/09/07 03:37:11;;;;;;;12.90;6.47;;;;;;;12.00;97.71;98683.53;5036339;28;20033;-84
2021/09/07 03:39:37;;;;;;;12.27;7.95;;;;;;;11.93;98.26;98674.84;5037635;28;20127;-85
2021/09/07 03:42:02;;;;;;;10.13;7.43;;;;;;;11.81;99.23;98671.63;5033162;28;20078;-84
2021/09/07 03:44:28;;;;;;;14.40;8.07;;;;;;;11.82;99.72;98665.88;5034884;28;20040;-85
2021/09/07 03:46:54;;;;;;;11.13;7.30;;;;;;;12.15;98.09;98679.88;5035234;28;20033;-87
2021/09/07 03:49:19;;;;;;;10.43;7.60;;;;;;;12.08;97.62;98676.63;5036062;28;20393;-88
2021/09/07 03:51:46;;;;;;;10.68;7.72;;;;;;;12.04;98.03;98672.81;5035903;28;20021;-85
2021/09/07 03:54:11;;;;;;;8.07;7.00;;;;;;;11.93;98.51;98674.84;5034462;28;20033;-89
2021/09/07 03:56:37;;;;;;;18.92;8.55;;;;;;;11.87;98.41;98675.16;5035355;28;20030;-87
2021/09/07 03:59:03;;;;;;;13.35;8.15;;;;;;;11.80;97.99;98657.13;5034153;28;20067;-85
2021/09/07 04:01:29;;;;;;;11.40;7.90;;;;;;;11.90;97.67;98675.41;5034899;28;20029;-88
2021/09/07 04:03:55;;;;;;;10.30;7.47;;;;;;;11.83;98.02;98672.19;5035062;28;20466;-85
2021/09/07 04:06:20;;;;;;;14.13;7.70;;;;;;;11.81;97.73;98675.19;5033511;28;20032;-86
2021/09/07 04:08:47;;;;;;;10.05;6.20;;;;;;;11.73;97.91;98670.31;5034674;28;20116;-84
2021/09/07 04:11:13;;;;;;;14.45;7.30;;;;;;;11.77;98.05;98679.63;5034260;28;20044;-85
2021/09/07 04:13:39;;;;;;;12.23;7.97;;;;;;;11.80;97.65;98667.28;5035019;28;20022;-86
2021/09/07 04:16:05;;;;;;;10.07;6.65;;;;;;;11.93;97.58;98691.28;5036351;28;20022;-86
2021/09/07 04:18:30;;;;;;;12.50;8.65;;;;;;;11.95;97.20;98680.03;5036115;28;20036;-86
2021/09/07 04:20:56;;;;;;;10.40;7.40;;;;;;;11.92;97.21;98691.56;5034241;28;20025;-85
2021/09/07 04:23:21;;;;;;;10.52;7.78;;;;;;;11.88;97.08;98683.09;5033613;28;20018;-87
2021/09/07 04:25:49;;;;;;;11.30;7.68;;;;;;;11.88;97.40;98679.53;5034508;28;20030;-85
2021/09/07 04:28:16;;;;;;;10.18;7.10;;;;;;;11.69;98.04;98666.47;5035240;28;20026;-87
2021/09/07 04:30:41;;;;;;;11.75;6.82;;;;;;;11.80;97.93;98673.56;5034575;28;20041;-87
2021/09/07 04:33:07;;;;;;;10.60;7.15;;;;;;;11.79;98.11;98671.94;5033991;28;20029;-84
2021/09/07 04:35:32;;;;;;;12.30;7.43;;;;;;;11.78;98.21;98678.50;5034702;28;20025;-84
2021/09/07 04:37:58;;;;;;;9.20;6.32;;;;;;;11.84;98.17;98675.75;5032977;28;20026;-83
2021/09/07 04:40:23;;;;;;;12.18;7.75;;;;;;;11.90;97.97;98683.66;5035416;28;20033;-85
2021/09/07 04:42:49;;;;;;;12.32;6.90;;;;;;;11.75;98.43;98675.50;5040910;28;20045;-86
2021/09/07 04:45:14;;;;;;;10.80;7.78;;;;;;;11.84;98.09;98690.25;5033359;28;20097;-85
2021/09/07 04:47:40;;;;;;;10.77;7.55;;;;;;;11.74;99.18;98690.34;5034287;28;20104;-84
2021/09/07 04:50:06;;;;;;;10.50;6.97;;;;;;;11.92;98.71;98686.91;5032113;28;20025;-87
2021/09/07 04:52:32;;;;;;;9.98;6.97;;;;;;;12.28;96.21;98696.47;5038096;28;20100;-85
2021/09/07 04:54:57;;;;;;;15.43;7.53;;;;;;;12.08;96.34;98688.44;5044914;28;20529;-88
2021/09/07 04:57:23;;;;;;;12.02;7.70;;;;;;;11.93;96.72;98672.09;5044895;28;20109;-87
2021/09/07 04:59:48;;;;;;;10.65;8.02;;;;;;;11.98;97.08;98691.25;5041471;28;20026;-77
2021/09/07 05:02:14;;;;;;;14.23;8.40;;;;;;;12.02;97.23;98686.00;5030086;28;20490;-77
2021/09/07 05:04:39;;;;;;;14.90;7.82;;;;;;;12.01;96.83;98684.38;5030300;28;20416;-75
2021/09/07 05:07:06;;;;;;;11.35;8.40;;;;;;;12.12;96.16;98688.69;5031533;28;20116;-74
2021/09/07 05:09:31;;;;;;;10.93;8.00;;;;;;;12.16;95.64;98684.22;5034391;28;20037;-75
2021/09/07 05:11:59;;;;;;;14.00;7.55;;;;;;;12.12;95.71;98680.44;5031981;28;20478;-76
2021/09/07 05:14:25;;;;;;;12.00;7.03;;;;;;;12.22;95.12;98696.78;5032702;28;20045;-77
2021/09/07 05:16:51;;;;;;;12.18;8.23;;;;;;;12.21;94.54;98684.22;5032528;28;20111;-75
2021/09/07 05:19:17;;;;;;;11.05;7.88;;;;;;;12.37;94.43;98709.59;5034054;28;20064;-78
2021/09/07 05:21:43;;;;;;;13.15;8.10;;;;;;;12.40;94.27;98696.09;5031768;28;20657;-75
2021/09/07 05:24:09;;;;;;;13.15;7.88;;;;;;;12.55;93.63;98704.19;5028907;28;20112;-76
2021/09/07 05:26:35;;;;;;;13.40;7.88;;;;;;;12.54;92.58;98694.31;5030347;28;20029;-76
2021/09/07 05:29:01;;;;;;;12.40;7.95;;;;;;;12.81;92.20;98705.53;5030442;28;20036;-75
2021/09/07 05:31:26;;;;;;;14.40;8.20;;;;;;;12.78;91.89;98702.59;5031836;28;20026;-79
2021/09/07 05:33:52;;;;;;;12.48;7.22;;;;;;;12.83;91.46;98708.84;5036060;28;20501;-77
2021/09/07 05:36:17;;;;;;;11.98;7.53;;;;;;;13.02;90.87;98708.06;5030556;28;20022;-80
2021/09/07 05:38:43;;;;;;;17.83;7.88;;;;;;;13.09;90.03;98701.16;5030372;28;20112;-79
2021/09/07 05:41:10;;;;;;;9.13;7.80;;;;;;;13.20;89.57;98708.16;5029604;28;20113;-79
2021/09/07 05:43:35;;;;;;;10.60;7.32;;;;;;;13.41;88.60;98708.69;5029922;28;20069;-79
2021/09/07 05:46:00;;;;;;;11.70;8.35;;;;;;;13.49;87.75;98708.06;5030390;28;20064;-80
2021/09/07 05:48:26;;;;;;;22.52;9.32;;;;;;;13.64;87.59;98713.34;5030537;28;20506;-80
2021/09/07 05:50:53;;;;;;;15.32;8.90;;;;;;;13.58;86.83;98691.72;5032737;28;20025;-79
2021/09/07 05:53:18;;;;;;;12.32;8.20;;;;;;;13.83;85.94;98708.66;5033932;28;20030;-77
2021/09/07 05:55:44;;;;;;;12.48;9.23;;;;;;;14.21;84.27;98705.88;5033863;28;20367;-77
2021/09/07 05:58:09;;;;;;;18.63;8.80;;;;;;;14.05;84.51;98718.22;5035005;28;20029;-77
2021/09/07 06:00:35;;;;;;;13.65;8.02;;;;;;;14.32;83.45;98712.81;5033763;28;20037;-80
2021/09/07 06:03:04;;;;;;;13.10;8.35;;;;;;;14.59;81.45;98714.88;5034760;28;20079;-78
2021/09/07 06:05:29;;;;;;;15.48;8.77;;;;;;;14.33;82.90;98720.81;5032363;28;20092;-78
2021/09/07 06:07:55;;;;;;;13.55;9.77;;;;;;;14.64;81.43;98718.34;5033179;28;20478;-78
2021/09/07 06:10:21;;;;;;;14.13;9.13;;;;;;;14.42;82.36;98712.69;5033422;28;20036;-77
2021/09/07 06:12:46;;;;;;;12.65;8.30;;;;;;;14.55;81.86;98705.59;5032428;28;20021;-77
2021/09/07 06:15:13;;;;;;;27.95;9.63;;;;;;;14.58;82.38;98722.31;5032993;28;20036;-79
2021/09/07 06:17:38;;;;;;;15.05;7.80;;;;;;;14.57;82.26;98715.16;5033344;28;20095;-78
2021/09/07 06:20:05;;;;;;;23.33;8.85;;;;;;;14.83;81.51;98721.84;5033334;28;20061;-79
2021/09/07 06:22:31;;;;;;;13.70;8.18;;;;;;;14.96;80.13;98707.28;5033146;28;20056;-79
2021/09/07 06:24:56;;;;;;;15.73;9.82;;;;;;;15.29;78.95;98726.47;5033184;28;20021;-78
2021/09/07 06:27:23;;;;;;;17.75;9.82;;;;;;;15.13;79.08;98722.41;5032157;28;20033;-78
2021/09/07 06:29:48;;;;;;;14.48;8.85;;;;;;;15.15;79.44;98725.66;5033724;28;20033;-78
2021/09/07 06:32:16;;;;;;;17.80;10.15;;;;;;;15.30;77.76;98720.66;5032065;28;20092;-77
2021/09/07 06:34:42;;;;;;;22.10;8.98;;;;;;;15.68;76.92;98726.78;5033019;28;20031;-79
2021/09/07 06:37:07;;;;;;;16.13;9.07;;;;;;;15.80;75.39;98715.19;5032643;28;20030;-79
2021/09/07 06:39:32;;;;;;;16.08;9.05;;;;;;;15.76;74.57;98712.22;5032831;28;20032;-78
2021/09/07 06:41:58;;;;;;;15.30;9.10;;;;;;;15.46;75.89;98707.38;5031699;28;20049;-79
2021/09/07 06:44:23;;;;;;;15.70;9.15;;;;;;;15.70;75.31;98709.91;5032215;28;20029;-80
2021/09/07 06:46:49;;;;;;;15.18;7.93;;;;;;;15.77;74.47;98716.63;5033434;28;20481;-81
2021/09/07 06:49:14;;;;;;;14.98;8.70;;;;;;;15.87;74.31;98715.59;5030878;28;20029;-79
2021/09/07 06:51:39;;;;;;;15.90;8.82;;;;;;;16.04;73.44;98719.31;5033303;28;20021;-80
2021/09/07 06:54:05;;;;;;;14.48;8.90;;;;;;;16.23;72.48;98721.06;5037522;28;20072;-79
2021/09/07 06:56:30;;;;;;;17.23;8.32;;;;;;;16.36;71.56;98707.22;5037876;28;20045;-80
2021/09/07 06:58:56;;;;;;;14.23;8.60;;;;;;;16.30;71.18;98707.66;5032885;28;20284;-79
2021/09/07 07:01:22;;;;;;;19.33;8.65;;;;;;;16.50;70.72;98712.66;5032239;28;20320;-80
2021/09/07 07:03:47;;;;;;;15.18;8.27;;;;;;;16.81;69.41;98716.28;5032545;28;20021;-80
2021/09/07 07:06:13;;;;;;;11.30;7.82;;;;;;;16.76;69.13;98724.69;5031092;28;20025;-80
2021/09/07 07:08:38;;;;;;;14.43;8.38;;;;;;;16.83;68.78;98719.53;5032672;28;20378;-81
2021/09/07 07:11:03;;;;;;;18.75;8.63;;;;;;;16.94;68.06;98709.88;5034026;28;20025;-81
2021/09/07 07:13:29;;;;;;;17.58;7.55;;;;;;;17.39;68.09;98716.03;5035843;28;20072;-82
2021/09/07 07:15:54;;;;;;;16.58;8.90;;;;;;;17.39;66.88;98710.50;5032414;28;20111;-82
2021/09/07 07:18:20;;;;;;;16.20;8.02;;;;;;;17.75;66.34;98726.91;5032231;28;20501;-79
2021/09/07 07:20:45;;;;;;;17.02;8.52;;;;;;;17.73;65.39;98718.09;5029547;28;20107;-81
2021/09/07 07:23:10;;;;;;;14.45;8.32;;;;;;;18.18;65.25;98727.75;5030863;28;20482;-80
2021/09/07 07:25:36;;;;;;;15.43;8.40;;;;;;;18.55;63.39;98722.69;5031668;28;20025;-79
2021/09/07 07:28:02;;;;;;;13.75;9.23;;;;;;;18.58;63.02;98722.03;5031567;28;20066;-79
2021/09/07 07:30:27;;;;;;;10.82;7.32;;;;;;;18.75;63.08;98723.97;5031401;28;20030;-79
2021/09/07 07:32:54;;;;;;;15.27;9.27;;;;;;;18.59;62.86;98718.94;5014346;28;20032;-78
2021/09/07 07:35:20;;;;;;;10.05;7.88;;;;;;;18.56;62.82;98732.63;5030523;28;20036;-79
2021/09/07 07:37:45;;;;;;;12.50;7.65;;;;;;;19.49;60.74;98739.03;5030592;28;20033;-78
2021/09/07 07:40:11;;;;;;;12.30;7.35;;;;;;;20.10;57.93;98739.47;5031606;28;20424;-79
2021/09/07 07:42:37;;;;;;;18.05;8.90;;;;;;;19.73;58.55;98735.66;5030413;28;20563;-79
2021/09/07 07:45:02;;;;;;;19.10;9.20;;;;;;;19.89;57.57;98720.00;5031080;28;20112;-78
2021/09/07 07:47:29;;;;;;;15.60;8.80;;;;;;;20.68;55.65;98732.94;5029444;28;20129;-78
2021/09/07 07:49:55;;;;;;;13.00;8.00;;;;;;;22.02;52.27;98739.50;5031244;28;20049;-78
2021/09/07 07:52:20;;;;;;;17.58;9.43;;;;;;;23.20;48.68;98737.75;5031854;28;20053;-78
2021/09/07 07:54:49;;;;;;;12.75;9.18;;;;;;;22.80;49.43;98737.88;5030896;28;20035;-79
2021/09/07 07:57:15;;;;;;;13.88;9.18;;;;;;;22.24;50.04;98731.41;5030263;28;20367;-77
2021/09/07 07:59:40;;;;;;;12.18;8.07;;;;;;;23.12;47.91;98730.34;5030683;28;20075;-77
2021/09/07 08:02:06;;;;;;;19.02;9.50;;;;;;;22.78;47.56;98711.47;5030845;28;20489;-79
2021/09/07 08:04:31;;;;;;;20.85;8.30;;;;;;;23.08;47.94;98739.81;5031933;28;20009;-78
2021/09/07 08:06:57;;;;;;;18.00;8.68;;;;;;;23.85;45.34;98746.56;5032113;28;20025;-77
2021/09/07 08:09:23;;;;;;;17.65;8.18;;;;;;;23.18;47.24;98742.88;5032198;28;20029;-79
2021/09/07 08:11:49;;;;;;;18.63;8.30;;;;;;;22.75;48.09;98740.09;5031395;28;20393;-78
2021/09/07 08:14:15;;;;;;;11.68;7.25;;;;;;;22.46;49.26;98746.00;5033173;28;20057;-78
2021/09/07 08:16:49;;;;;;;11.70;6.55;;;;;;;22.59;49.01;98739.19;5031992;28;20030;-78
2021/09/07 08:19:15;;;;;;;16.98;8.15;;;;;;;23.66;46.28;98738.13;5031410;28;20026;-77
2021/09/07 08:21:42;;;;;;;17.27;8.02;;;;;;;23.67;46.10;98742.53;5032136;28;20071;-78
2021/09/07 08:24:07;;;;;;;15.98;7.57;;;;;;;23.65;45.68;98742.09;5029975;28;20385;-78
2021/09/07 08:26:33;;;;;;;13.43;6.97;;;;;;;22.76;47.53;98750.09;5031417;28;20030;-78
2021/09/07 08:28:58;;;;;;;12.48;6.47;;;;;;;23.42;45.56;98733.56;5031804;28;20029;-78
2021/09/07 08:31:23;;;;;;;12.60;7.05;;;;;;;24.11;44.30;98748.78;5031041;28;20041;-77
2021/09/07 08:33:49;;;;;;;10.75;6.80;;;;;;;24.92;42.00;98756.97;5031494;28;20104;-78
2021/09/07 08:36:14;;;;;;;18.98;6.57;;;;;;;24.90;42.22;98758.53;5031815;28;20026;-78
2021/09/07 08:38:40;;;;;;;10.02;7.40;;;;;;;25.69;40.68;98753.97;5030908;28;20478;-77
2021/09/07 08:41:05;;;;;;;11.02;6.15;;;;;;;25.64;40.95;98753.47;5029575;28;20084;-78
2021/09/07 08:43:31;;;;;;;11.57;6.07;;;;;;;25.96;40.28;98740.78;5031625;28;20057;-77
2021/09/07 08:45:58;;;;;;;19.05;9.45;;;;;;;26.16;40.60;98745.09;5030412;28;20021;-77
2021/09/07 08:48:25;;;;;;;10.27;6.43;;;;;;;26.21;38.35;98756.00;5030847;28;20452;-78
2021/09/07 08:50:55;;;;;;;10.07;5.93;;;;;;;27.21;36.86;98763.69;5030453;28;20414;-78
2021/09/07 08:53:22;;;;;;;12.38;5.80;;;;;;;28.77;33.79;98757.25;5028188;28;20553;-78
2021/09/07 08:55:48;;;;;;;8.70;6.13;;;;;;;28.02;34.61;98759.63;5030289;28;20033;-76
2021/09/07 08:58:13;;;;;;;11.50;5.80;;;;;;;27.72;34.69;98750.56;5041855;28;20021;-76
2021/09/07 09:00:39;;;;;;;8.88;6.18;;;;;;;27.07;35.99;98741.84;5036212;28;20018;-76
2021/09/07 09:03:11;;;;;;;12.25;6.03;;;;;;;27.39;35.89;98743.00;5031505;28;20017;-76
2021/09/07 09:05:40;;;;;;;11.63;5.80;;;;;;;27.48;35.68;98743.50;5032138;28;20087;-76
2021/09/07 09:08:13;;;;;;;9.07;5.28;;;;;;;29.11;33.82;98759.41;5033260;28;20569;-77
2021/09/07 09:10:41;;;;;;;12.27;6.43;;;;;;;28.93;33.06;98747.28;5037954;28;20029;-79
2021/09/07 09:13:14;;;;;;;9.65;6.25;;;;;;;28.87;33.45;98750.88;5033818;28;20121;-77
2021/09/07 09:15:41;;;;;;;11.02;6.13;;;;;;;29.29;32.35;98753.81;5031335;28;20818;-77
2021/09/07 09:18:08;;;;;;;8.30;5.75;;;;;;;29.63;31.86;98735.31;5029505;28;20504;-77
2021/09/07 09:20:35;;;;;;;9.95;5.57;;;;;;;30.36;30.37;98755.41;5030682;28;20029;-80
2021/09/07 09:23:02;;;;;;;6.38;5.78;;;;;;;31.09;29.56;98747.91;5030961;28;20036;-79
2021/09/07 09:25:32;;;;;;;9.75;5.38;;;;;;;30.67;29.96;98743.25;5033302;28;20036;-77
2021/09/07 09:27:58;;;;;;;7.00;5.95;;;;;;;29.35;31.52;98740.16;5034770;28;20140;-76
2021/09/07 09:30:36;;;;;;;12.02;6.25;;;;;;;28.54;33.38;98733.00;5032502;28;20858;-77
2021/09/07 09:33:05;;;;;;;7.43;5.65;;;;;;;27.73;34.21;98734.47;5033778;28;20018;-77
2021/09/07 09:35:42;;;;;;;7.60;5.57;;;;;;;28.34;33.53;98726.06;5034035;28;20397;-77
2021/09/07 09:38:07;;;;;;;11.45;6.75;;;;;;;28.06;33.90;98703.41;5032360;28;20030;-77
2021/09/07 09:40:34;;;;;;;10.40;5.72;;;;;;;27.76;34.54;98716.81;5033556;28;20026;-76
2021/09/07 09:43:25;;;;;;;13.32;6.68;;;;;;;28.11;34.20;98719.91;5034765;28;20041;-76
2021/09/07 09:45:51;;;;;;;10.10;5.57;;;;;;;28.05;34.61;98713.03;5034911;28;20036;-78
2021/09/07 09:48:30;;;;;;;9.35;6.10;;;;;;;30.09;31.33;98720.41;5033229;28;20021;-77
2021/09/07 09:50:58;;;;;;;5.75;5.07;;;;;;;29.98;30.81;98716.81;5032457;28;20033;-78
2021/09/07 09:53:25;;;;;;;14.77;4.80;;;;;;;31.44;29.40;98724.25;5034356;28;20545;-75
2021/09/07 09:55:53;;;;;;;8.02;5.05;;;;;;;31.71;28.43;98721.63;5033178;28;20120;-76
2021/09/07 09:58:20;;;;;;;20.10;5.55;;;;;;;30.20;30.42;98718.34;5034161;28;20031;-76
2021/09/07 10:00:47;;;;;;;8.38;4.88;;;;;;;29.00;32.57;98701.41;5033729;28;20064;-77
2021/09/07 10:03:14;;;;;;;13.57;6.15;;;;;;;28.56;32.90;98698.81;5034585;28;20053;-76
2021/09/07 10:05:41;;;;;;;8.95;5.47;;;;;;;30.21;31.55;98714.31;5033471;28;20029;-76
2021/09/07 10:08:10;;;;;;;12.95;5.15;;;;;;;30.98;29.64;98698.31;5034085;28;20120;-76
2021/09/07 10:10:38;;;;;;;6.22;5.13;;;;;;;29.02;32.63;98698.97;5034647;28;20037;-78
2021/09/07 10:13:07;;;;;;;7.40;5.40;;;;;;;30.81;30.10;98697.16;5022562;28;20034;-77
2021/09/07 10:15:43;;;;;;;15.52;5.53;;;;;;;28.93;33.19;98696.56;5042626;28;20112;-77
2021/09/07 10:18:32;;;;;;;;;;;;;;;31.43;28.83;98700.00;5051193;28;20028;-78
2021/09/07 10:21:15;;;;;;;7.40;4.68;;;;;;;29.58;31.12;98682.13;5055654;28;19965;-78
2021/09/07 10:23:54;;;;;;;8.02;5.63;;;;;;;29.61;32.03;98681.31;5055093;28;20029;-77
2021/09/07 10:26:37;;;;;;;6.85;4.93;;;;;;;30.30;30.88;98686.44;5037542;28;20098;-77
2021/09/07 10:29:08;;;;;;;10.25;5.07;;;;;;;29.98;31.37;98680.09;5033388;28;20039;-77
2021/09/07 10:31:43;;;;;;;10.85;5.00;;;;;;;30.80;29.17;98685.06;5033297;28;20025;-76
2021/09/07 10:34:11;;;;;;;7.63;5.40;;;;;;;28.39;32.07;98677.81;5033289;28;20032;-76
2021/09/07 10:37:02;;;;;;;7.90;5.18;;;;;;;28.14;32.79;98672.09;5032331;28;20071;-76
2021/09/07 10:39:42;;;;;;;8.05;4.45;;;;;;;29.26;30.78;98672.84;5032752;28;20064;-76
2021/09/07 10:42:15;;;;;;;6.00;4.75;;;;;;;28.90;31.44;98679.63;5034880;28;20604;-81
2021/09/07 10:44:42;;;;;;;10.43;4.70;;;;;;;28.59;32.03;98664.22;5033931;28;20371;-77
2021/09/07 10:47:16;;;;;;;8.10;4.07;;;;;;;29.06;29.44;98668.78;5033800;28;20029;-78
2021/09/07 10:49:47;;;;;;;6.45;4.40;;;;;;;29.88;28.78;98667.63;5034099;28;20112;-79
2021/09/07 10:52:14;;;;;;;7.15;4.32;;;;;;;29.43;29.69;98663.59;5033472;28;20084;-79
2021/09/07 10:55:09;;;;;;;7.97;4.15;;;;;;;27.97;31.91;98658.72;5041820;28;20034;-78
2021/09/07 10:57:34;;;;;;;6.65;5.03;;;;;;;26.92;34.40;98655.84;5013754;28;20096;-76
2021/09/07 11:00:12;;;;;;;10.18;4.65;;;;;;;27.42;33.50;98657.06;5013791;28;20033;-78
2021/09/07 11:02:44;;;;;;;6.68;4.63;;;;;;;25.83;35.89;98660.88;5013842;28;20430;-77
2021/09/07 11:05:12;;;;;;;6.20;3.78;;;;;;;25.95;35.56;98660.63;5014601;28;20509;-78
2021/09/07 11:07:46;;;;;;;6.10;4.40;;;;;;;25.94;35.78;98644.97;5012570;28;20038;-78
2021/09/07 11:10:15;;;;;;;5.65;5.05;;;;;;;25.70;36.40;98653.84;5013427;28;20422;-79
2021/09/07 11:13:04;;;;;;;5.40;4.32;;;;;;;25.24;37.34;98653.13;5014524;28;20018;-78
2021/09/07 11:15:41;;;;;;;9.63;4.85;;;;;;;24.59;38.29;98629.94;5019007;28;20034;-78
2021/09/07 11:18:09;;;;;;;9.68;4.57;;;;;;;24.37;38.17;98635.09;5014594;28;20021;-78
2021/09/07 11:20:56;;;;;;;8.23;4.80;;;;;;;24.59;38.10;98635.53;5030450;28;20021;-78
2021/09/07 11:23:27;;;;;;;11.90;4.97;;;;;;;25.55;37.23;98645.25;5032839;28;20057;-79
2021/09/07 11:26:05;;;;;;;8.40;4.50;;;;;;;26.01;35.25;98634.69;5032941;28;20014;-80